Time;durP1;ratioP1;P1;durP2;ratioP2;P2;SDS_P1;SDS_P2;PMS_P1;PMS_P2;Temp;Humidity;BMP_temperature;BMP_pressure;BME280_temperature;BME280_humidity;BME280_pressure;Samples;Min_cycle;Max_cycle;Signal;HPM_P1;HPM_P2
2023/12/28 00:00:51;;;;;;;11.63;7.53;;;1.80;99.90;;;;;;5017162;28;20273;-42
2023/12/28 00:03:17;;;;;;;12.90;7.63;;;1.80;99.90;;;;;;5014087;28;20216;-41
2023/12/28 00:05:43;;;;;;;8.77;5.90;;;1.80;99.90;;;;;;5014622;28;20221;-40
2023/12/28 00:08:08;;;;;;;8.40;6.00;;;1.70;99.90;;;;;;5010985;28;20218;-41
2023/12/28 00:10:36;;;;;;;10.10;6.20;;;1.70;99.90;;;;;;5017582;28;20198;-41
2023/12/28 00:13:02;;;;;;;8.27;5.57;;;1.80;99.90;;;;;;5015690;28;20182;-42
2023/12/28 00:15:28;;;;;;;11.17;5.57;;;1.80;99.90;;;;;;5018311;28;20291;-42
2023/12/28 00:17:54;;;;;;;6.53;5.03;;;1.90;99.90;;;;;;5044190;28;20199;-40
2023/12/28 00:20:20;;;;;;;8.60;5.20;;;1.90;99.90;;;;;;5025698;28;20181;-41
2023/12/28 00:22:45;;;;;;;6.17;4.53;;;1.90;99.90;;;;;;4996824;28;20205;-41
2023/12/28 00:25:11;;;;;;;6.20;4.70;;;2.00;99.90;;;;;;5014361;28;20240;-41
2023/12/28 00:27:37;;;;;;;7.27;4.83;;;2.00;99.90;;;;;;5007634;28;20222;-41
2023/12/28 00:30:05;;;;;;;7.10;4.67;;;2.00;99.90;;;;;;5014845;28;20230;-41
2023/12/28 00:32:31;;;;;;;14.17;8.30;;;2.00;99.90;;;;;;4998426;28;20244;-41
2023/12/28 00:34:57;;;;;;;14.27;9.37;;;2.00;99.90;;;;;;5011702;28;20185;-41
2023/12/28 00:37:23;;;;;;;15.37;9.50;;;2.00;99.90;;;;;;5012102;28;20214;-42
2023/12/28 00:39:50;;;;;;;13.87;8.33;;;1.90;99.90;;;;;;5008686;28;20250;-42
2023/12/28 00:42:18;;;;;;;11.33;6.33;;;2.00;99.90;;;;;;5006174;28;20178;-42
2023/12/28 00:44:44;;;;;;;8.33;6.20;;;1.80;99.90;;;;;;5018676;28;20180;-41
2023/12/28 00:47:10;;;;;;;7.87;6.30;;;1.80;99.90;;;;;;4998141;28;20214;-41
2023/12/28 00:49:37;;;;;;;9.87;6.60;;;1.70;99.90;;;;;;5010787;28;20220;-40
2023/12/28 00:52:03;;;;;;;7.57;5.77;;;1.70;99.90;;;;;;5008568;28;20191;-41
2023/12/28 00:54:30;;;;;;;10.83;5.90;;;1.60;99.90;;;;;;5023761;28;20174;-41
2023/12/28 00:56:56;;;;;;;8.63;5.47;;;1.60;99.90;;;;;;5002435;28;20260;-42
2023/12/28 00:59:21;;;;;;;8.23;5.70;;;1.60;99.90;;;;;;5012344;28;20181;-42
2023/12/28 01:01:47;;;;;;;11.30;6.57;;;1.60;99.90;;;;;;5008293;28;20183;-41
2023/12/28 01:04:13;;;;;;;9.87;6.03;;;1.60;99.90;;;;;;5012561;28;20187;-42
2023/12/28 01:06:39;;;;;;;7.43;5.80;;;1.50;99.90;;;;;;5025041;28;20181;-40
2023/12/28 01:09:06;;;;;;;7.40;5.17;;;1.50;99.90;;;;;;4997783;28;20174;-40
2023/12/28 01:11:32;;;;;;;6.80;5.10;;;1.60;99.90;;;;;;5013160;28;20210;-40
2023/12/28 01:13:59;;;;;;;7.10;4.50;;;1.70;99.90;;;;;;5018018;28;20184;-39
2023/12/28 01:16:24;;;;;;;7.60;5.07;;;1.70;99.90;;;;;;5015489;28;20182;-40
2023/12/28 01:18:50;;;;;;;7.70;4.43;;;1.80;99.90;;;;;;5009258;28;20201;-41
2023/12/28 01:21:17;;;;;;;8.37;4.67;;;1.80;99.90;;;;;;5021683;28;20190;-40
2023/12/28 01:23:43;;;;;;;6.20;4.27;;;1.90;99.90;;;;;;5013777;28;20178;-40
2023/12/28 01:26:14;;;;;;;7.77;4.80;;;1.90;99.90;;;;;;5005704;28;20186;-41
2023/12/28 01:28:40;;;;;;;8.17;4.67;;;2.00;99.90;;;;;;5016448;28;20214;-40
2023/12/28 01:31:05;;;;;;;9.73;6.33;;;2.00;99.90;;;;;;5011990;28;20237;-41
2023/12/28 01:33:31;;;;;;;12.37;6.80;;;2.00;99.90;;;;;;5013664;28;20226;-39
2023/12/28 01:35:57;;;;;;;12.20;6.93;;;2.00;99.90;;;;;;5021434;28;20183;-41
2023/12/28 01:38:23;;;;;;;7.53;4.67;;;2.00;99.90;;;;;;5013717;28;20302;-42
2023/12/28 01:40:49;;;;;;;11.73;6.03;;;1.90;99.90;;;;;;5003449;28;20179;-42
2023/12/28 01:43:14;;;;;;;8.40;4.63;;;1.90;99.90;;;;;;5012155;28;20255;-40
2023/12/28 01:45:41;;;;;;;5.93;4.10;;;1.90;99.90;;;;;;5016735;28;20384;-41
2023/12/28 01:48:07;;;;;;;6.70;4.50;;;1.90;99.90;;;;;;5008872;28;20286;-40
2023/12/28 01:50:35;;;;;;;7.00;3.90;;;1.90;99.90;;;;;;5012270;28;20224;-41
2023/12/28 01:53:01;;;;;;;6.93;4.20;;;2.00;99.90;;;;;;5019358;28;20201;-40
2023/12/28 01:55:28;;;;;;;4.47;3.67;;;1.90;99.90;;;;;;5014279;28;20276;-42
2023/12/28 01:57:55;;;;;;;5.90;3.97;;;1.90;99.90;;;;;;5013327;28;20190;-41
2023/12/28 02:00:24;;;;;;;5.63;4.00;;;1.90;99.90;;;;;;5011045;28;20182;-40
2023/12/28 02:02:51;;;;;;;8.03;4.43;;;1.90;99.90;;;;;;5013077;28;20202;-42
2023/12/28 02:05:17;;;;;;;6.73;4.47;;;1.90;99.90;;;;;;5029530;28;20182;-40
2023/12/28 02:07:43;;;;;;;6.83;4.50;;;1.80;99.90;;;;;;4996874;28;20285;-41
2023/12/28 02:10:09;;;;;;;5.30;3.97;;;1.80;99.90;;;;;;5006604;28;20328;-41
2023/12/28 02:12:35;;;;;;;6.10;4.43;;;1.80;99.90;;;;;;5012654;28;20290;-42
2023/12/28 02:15:01;;;;;;;5.57;4.13;;;1.80;99.90;;;;;;4996908;28;20707;-41
2023/12/28 02:17:41;;;;;;;6.03;4.00;;;1.80;99.90;;;;;;5013250;28;20238;-40
2023/12/28 02:20:08;;;;;;;4.87;4.13;;;1.70;99.90;;;;;;5007565;28;20186;-39
2023/12/28 02:22:35;;;;;;;6.27;4.10;;;1.70;99.90;;;;;;5000509;28;20195;-41
2023/12/28 02:25:03;;;;;;;5.77;4.23;;;1.70;99.90;;;;;;4996324;28;20273;-41
2023/12/28 02:27:29;;;;;;;6.70;4.57;;;1.70;99.90;;;;;;5009573;28;20206;-40
2023/12/28 02:29:57;;;;;;;8.57;5.50;;;1.60;99.90;;;;;;5013201;28;20194;-41
2023/12/28 02:32:32;;;;;;;8.87;6.03;;;1.50;99.90;;;;;;5006023;28;20301;-42
2023/12/28 02:35:06;;;;;;;7.50;5.17;;;1.40;99.90;;;;;;5007201;28;20172;-41
2023/12/28 03:49:08;;;;;;;5.93;4.17;;;1.70;99.90;;;;;;5077108;28;20271;-92
2023/12/28 03:51:34;;;;;;;6.10;5.00;;;1.80;99.90;;;;;;5010833;28;20222;-40
2023/12/28 03:53:59;;;;;;;6.83;4.63;;;1.70;99.90;;;;;;5029871;28;20218;-33
2023/12/28 03:56:27;;;;;;;7.57;4.50;;;1.70;99.90;;;;;;5039739;28;20187;-35
2023/12/28 03:58:54;;;;;;;5.07;4.00;;;1.70;99.90;;;;;;5018207;28;20174;-40
2023/12/28 04:01:24;;;;;;;7.10;4.53;;;1.70;99.90;;;;;;5035119;28;20189;-34
2023/12/28 04:03:50;;;;;;;8.10;5.53;;;1.60;99.90;;;;;;5027300;28;20203;-34
2023/12/28 04:06:16;;;;;;;8.10;5.33;;;1.60;99.90;;;;;;5067910;23;20217;-30
2023/12/28 04:08:42;;;;;;;7.13;4.70;;;1.50;99.90;;;;;;5018604;28;20182;-31
2023/12/28 04:11:09;;;;;;;7.03;4.67;;;1.60;99.90;;;;;;5018460;28;20217;-32
2023/12/28 04:13:35;;;;;;;7.40;4.97;;;1.50;99.90;;;;;;5040277;28;20186;-31
2023/12/28 04:16:02;;;;;;;7.00;4.57;;;1.50;99.90;;;;;;5021554;28;20226;-31
2023/12/28 04:18:28;;;;;;;5.50;4.20;;;1.50;99.90;;;;;;5023937;28;20186;-31
2023/12/28 04:20:54;;;;;;;6.97;5.10;;;1.50;99.90;;;;;;5035322;28;20272;-31
2023/12/28 04:23:20;;;;;;;7.60;4.83;;;1.50;99.90;;;;;;5018656;28;20185;-28
2023/12/28 04:25:46;;;;;;;6.07;4.37;;;1.50;99.90;;;;;;5017332;28;20198;-31
2023/12/28 04:28:11;;;;;;;6.83;4.80;;;1.50;99.90;;;;;;5035352;28;20193;-31
2023/12/28 04:30:37;;;;;;;6.70;3.90;;;1.50;99.90;;;;;;5017308;28;20222;-30
2023/12/28 04:33:04;;;;;;;6.17;3.77;;;1.50;99.90;;;;;;5018402;28;20208;-30
2023/12/28 04:35:30;;;;;;;8.17;4.23;;;1.60;99.90;;;;;;5033905;28;20197;-32
2023/12/28 04:37:57;;;;;;;5.10;3.63;;;1.60;99.90;;;;;;5015283;28;20229;-32
2023/12/28 04:40:22;;;;;;;4.40;3.50;;;1.70;99.90;;;;;;5015692;28;20186;-32
2023/12/28 04:42:48;;;;;;;4.67;3.10;;;1.80;99.90;;;;;;5034384;28;20174;-31
2023/12/28 04:45:14;;;;;;;4.27;3.37;;;1.90;99.90;;;;;;5017876;28;20217;-32
2023/12/28 04:47:40;;;;;;;4.47;2.90;;;2.10;99.90;;;;;;5034191;28;20186;-31
2023/12/28 04:50:07;;;;;;;5.17;3.13;;;2.10;99.90;;;;;;5016776;28;20212;-32
2023/12/28 04:52:33;;;;;;;4.13;2.90;;;2.20;99.90;;;;;;5034089;28;20174;-32
2023/12/28 04:54:59;;;;;;;3.80;2.80;;;2.20;99.90;;;;;;5015982;28;20209;-32
2023/12/28 04:57:27;;;;;;;2.67;2.30;;;2.20;99.90;;;;;;5011968;28;20183;-32
2023/12/28 04:59:54;;;;;;;4.13;2.93;;;2.30;99.90;;;;;;5014944;28;20181;-31
2023/12/28 05:02:20;;;;;;;3.50;2.80;;;2.20;99.90;;;;;;5033267;28;20288;-33
2023/12/28 05:04:46;;;;;;;3.93;2.83;;;2.30;99.90;;;;;;5016878;28;20221;-30
2023/12/28 05:07:12;;;;;;;3.57;2.70;;;2.20;99.90;;;;;;5014275;28;20194;-32
2023/12/28 05:09:38;;;;;;;3.93;3.00;;;2.30;99.90;;;;;;5017309;28;20186;-30
2023/12/28 05:12:04;;;;;;;4.60;3.00;;;2.30;99.90;;;;;;5033737;28;20177;-30
2023/12/28 05:14:30;;;;;;;4.43;3.00;;;2.30;99.90;;;;;;5015031;28;20226;-29
2023/12/28 05:16:56;;;;;;;3.20;2.67;;;2.30;99.90;;;;;;5033499;28;20252;-29
2023/12/28 05:19:22;;;;;;;4.10;2.57;;;2.30;99.90;;;;;;5034008;28;20182;-29
2023/12/28 05:21:47;;;;;;;3.10;2.10;;;2.40;99.90;;;;;;5016471;28;20178;-29
2023/12/28 05:24:13;;;;;;;2.40;2.20;;;2.60;99.90;;;;;;5020523;28;20236;-29
2023/12/28 05:26:39;;;;;;;5.50;2.37;;;2.80;99.90;;;;;;5016764;28;20178;-30
2023/12/28 05:29:05;;;;;;;3.37;2.50;;;2.90;99.90;;;;;;5019554;28;20189;-30
2023/12/28 05:31:31;;;;;;;4.47;2.70;;;3.00;99.90;;;;;;5030643;28;20210;-29
2023/12/28 05:33:58;;;;;;;3.47;2.73;;;3.10;99.90;;;;;;5013843;28;20196;-30
2023/12/28 05:36:24;;;;;;;3.30;2.97;;;3.10;99.90;;;;;;5011627;28;20199;-29
2023/12/28 05:38:50;;;;;;;4.57;2.53;;;3.10;99.90;;;;;;5011641;28;20178;-29
2023/12/28 05:41:17;;;;;;;3.10;2.20;;;3.20;99.90;;;;;;5015803;28;20202;-30
2023/12/28 05:43:43;;;;;;;4.27;2.60;;;3.40;99.90;;;;;;5016516;28;20185;-30
2023/12/28 05:46:09;;;;;;;3.90;2.33;;;3.40;99.90;;;;;;5030997;28;20210;-29
2023/12/28 05:48:35;;;;;;;14.03;9.20;;;3.50;99.90;;;;;;5015691;28;20182;-29
2023/12/28 05:51:01;;;;;;;3.80;2.63;;;3.50;99.90;;;;;;5031695;28;20217;-29
2023/12/28 05:53:27;;;;;;;3.37;2.20;;;3.70;99.90;;;;;;5014523;28;20188;-30
2023/12/28 05:55:53;;;;;;;4.80;2.97;;;3.70;99.90;;;;;;5033429;28;20194;-29
2023/12/28 05:58:19;;;;;;;6.03;3.83;;;3.70;99.90;;;;;;5016768;28;20182;-30
2023/12/28 06:00:48;;;;;;;6.00;4.10;;;3.70;99.90;;;;;;5032134;28;20281;-30
2023/12/28 06:03:14;;;;;;;4.57;2.83;;;3.60;99.90;;;;;;5016231;28;20186;-30
2023/12/28 06:05:40;;;;;;;3.57;2.77;;;3.50;99.90;;;;;;5033857;28;20240;-30
2023/12/28 06:08:06;;;;;;;3.93;2.87;;;3.40;99.90;;;;;;5010861;28;20185;-30
2023/12/28 06:10:32;;;;;;;4.07;2.60;;;3.40;99.90;;;;;;5053205;28;20712;-30
2023/12/28 06:12:58;;;;;;;3.00;2.40;;;3.40;99.90;;;;;;5022352;28;20173;-30
2023/12/28 06:15:24;;;;;;;3.47;2.60;;;3.30;99.90;;;;;;5034790;28;20221;-30
2023/12/28 06:17:49;;;;;;;2.70;2.17;;;3.40;99.90;;;;;;5030510;28;20185;-29
2023/12/28 06:20:15;;;;;;;3.03;2.50;;;3.40;99.90;;;;;;5012571;28;20183;-30
2023/12/28 06:22:42;;;;;;;2.90;2.30;;;3.40;99.90;;;;;;5017982;28;20197;-29
2023/12/28 06:25:08;;;;;;;2.17;1.80;;;3.50;99.90;;;;;;5030414;28;20214;-30
2023/12/28 06:27:34;;;;;;;2.97;2.10;;;3.70;99.90;;;;;;5029467;28;20239;-29
2023/12/28 06:29:59;;;;;;;2.27;1.60;;;3.90;99.90;;;;;;5018905;28;20220;-30
2023/12/28 06:32:25;;;;;;;2.03;1.33;;;4.00;99.90;;;;;;5033872;28;20182;-30
2023/12/28 06:34:51;;;;;;;2.30;1.70;;;4.20;99.90;;;;;;5021312;28;20203;-29
2023/12/28 06:37:17;;;;;;;1.80;1.70;;;4.20;99.90;;;;;;5015828;28;20197;-30
2023/12/28 06:39:43;;;;;;;4.37;2.33;;;4.20;99.90;;;;;;5026456;28;20182;-29
2023/12/28 06:42:08;;;;;;;3.50;1.77;;;4.30;99.90;;;;;;5015541;28;20177;-29
2023/12/28 06:44:34;;;;;;;5.53;1.70;;;4.20;99.90;;;;;;5015845;28;20227;-30
2023/12/28 06:47:00;;;;;;;2.27;1.70;;;4.40;99.90;;;;;;5030346;28;20244;-29
2023/12/28 06:49:26;;;;;;;2.27;1.70;;;4.30;99.90;;;;;;5031532;28;20181;-30
2023/12/28 06:51:52;;;;;;;3.33;1.70;;;4.30;99.90;;;;;;5032865;28;20182;-30
2023/12/28 06:54:18;;;;;;;2.50;1.80;;;4.30;99.90;;;;;;5015448;28;20178;-29
2023/12/28 06:56:44;;;;;;;2.77;2.00;;;4.30;99.90;;;;;;5031720;28;20178;-29
2023/12/28 06:59:12;;;;;;;1.90;1.70;;;4.30;99.90;;;;;;5010631;28;20176;-29
2023/12/28 07:01:41;;;;;;;2.37;2.00;;;4.30;99.90;;;;;;5034244;28;20226;-30
2023/12/28 07:04:07;;;;;;;2.20;2.00;;;4.50;99.90;;;;;;5051641;28;20191;-30
2023/12/28 07:06:33;;;;;;;2.37;1.87;;;4.60;99.90;;;;;;5031109;28;20193;-30
2023/12/28 07:08:59;;;;;;;2.30;1.83;;;4.60;99.90;;;;;;5017907;28;20245;-29
2023/12/28 07:11:28;;;;;;;2.70;2.10;;;4.50;99.90;;;;;;5035643;28;20203;-29
2023/12/28 07:13:54;;;;;;;2.50;1.63;;;4.50;99.90;;;;;;5018816;28;20187;-30
2023/12/28 07:16:20;;;;;;;2.30;1.77;;;4.50;99.90;;;;;;5018728;28;20226;-30
2023/12/28 07:18:47;;;;;;;2.37;1.80;;;4.40;99.90;;;;;;5034275;28;20206;-30
2023/12/28 07:21:13;;;;;;;2.77;2.13;;;4.40;99.90;;;;;;5033558;28;20223;-30
2023/12/28 07:23:39;;;;;;;3.70;2.30;;;4.40;99.90;;;;;;5019301;28;20216;-30
2023/12/28 07:26:05;;;;;;;3.03;2.20;;;4.40;99.90;;;;;;5007380;28;20213;-30
2023/12/28 07:28:31;;;;;;;3.57;2.60;;;4.40;99.90;;;;;;5036052;28;20198;-29
2023/12/28 07:30:57;;;;;;;3.20;2.63;;;4.30;99.90;;;;;;5030539;28;20201;-30
2023/12/28 07:33:23;;;;;;;3.10;2.60;;;4.40;99.90;;;;;;5027501;28;20196;-30
2023/12/28 07:35:48;;;;;;;3.40;2.90;;;4.40;99.90;;;;;;5022955;28;20212;-30
2023/12/28 07:38:15;;;;;;;6.33;4.27;;;4.40;99.90;;;;;;5014350;28;20270;-29
2023/12/28 07:40:41;;;;;;;5.50;4.30;;;4.40;99.90;;;;;;5030290;28;20197;-30
2023/12/28 07:43:07;;;;;;;6.93;3.63;;;4.40;99.90;;;;;;5022973;28;20213;-30
2023/12/28 07:45:32;;;;;;;5.27;3.50;;;4.50;99.90;;;;;;5003577;28;20242;-30
2023/12/28 07:48:01;;;;;;;6.07;3.97;;;4.50;99.90;;;;;;5033183;28;20199;-29
2023/12/28 07:50:27;;;;;;;6.47;3.60;;;4.50;99.90;;;;;;5018223;28;20240;-30
2023/12/28 07:52:53;;;;;;;4.00;2.83;;;4.60;99.90;;;;;;5020202;28;20183;-29
2023/12/28 07:55:19;;;;;;;3.00;2.20;;;4.60;99.90;;;;;;5026800;28;20209;-30
2023/12/28 07:57:45;;;;;;;3.63;2.10;;;4.70;99.90;;;;;;5023767;28;20183;-29
2023/12/28 08:00:12;;;;;;;5.37;3.07;;;5.00;99.90;;;;;;5026758;28;20652;-30
2023/12/28 08:02:38;;;;;;;3.43;2.20;;;5.00;99.90;;;;;;5014731;28;20189;-30
2023/12/28 08:05:05;;;;;;;4.20;2.37;;;5.10;99.90;;;;;;5022274;28;20215;-29
2023/12/28 08:07:31;;;;;;;3.33;2.33;;;5.10;99.90;;;;;;5019705;28;20197;-30
2023/12/28 08:09:57;;;;;;;3.07;2.33;;;5.40;99.90;;;;;;5021631;28;20212;-29
2023/12/28 08:12:24;;;;;;;3.60;2.73;;;5.60;99.90;;;;;;5023192;28;20243;-31
2023/12/28 08:14:50;;;;;;;3.90;2.50;;;5.60;99.90;;;;;;5031962;28;20201;-30
2023/12/28 08:17:16;;;;;;;4.50;2.40;;;5.70;99.90;;;;;;5047023;28;20186;-29
2023/12/28 08:19:42;;;;;;;3.60;2.13;;;5.70;99.90;;;;;;5033059;28;20174;-30
2023/12/28 08:22:08;;;;;;;2.93;2.10;;;5.80;99.90;;;;;;5019279;28;20177;-30
2023/12/28 08:24:36;;;;;;;1.80;1.53;;;5.90;99.90;;;;;;5015398;28;20266;-30
2023/12/28 08:27:02;;;;;;;2.53;2.03;;;6.00;99.90;;;;;;5020061;28;20230;-29
2023/12/28 08:29:28;;;;;;;2.60;1.90;;;6.10;99.90;;;;;;5009336;28;20229;-30
2023/12/28 08:31:55;;;;;;;4.57;2.33;;;6.00;99.90;;;;;;4995930;28;20298;-30
2023/12/28 08:34:27;;;;;;;3.23;2.00;;;6.00;99.90;;;;;;5012213;28;20195;-30
2023/12/28 08:36:54;;;;;;;2.70;1.80;;;6.00;99.90;;;;;;5014134;28;20198;-30
2023/12/28 08:39:21;;;;;;;2.40;1.83;;;6.00;99.90;;;;;;5022739;28;20177;-30
2023/12/28 08:41:49;;;;;;;4.03;2.37;;;5.90;99.90;;;;;;5008366;28;20222;-31
2023/12/28 08:44:15;;;;;;;3.67;2.60;;;5.90;99.90;;;;;;5014958;28;20237;-31
2023/12/28 08:46:41;;;;;;;4.27;3.00;;;5.90;99.90;;;;;;5014314;28;20274;-30
2023/12/28 08:49:07;;;;;;;9.23;5.33;;;5.90;99.90;;;;;;5012045;28;20197;-30
2023/12/28 08:51:34;;;;;;;13.50;7.87;;;5.80;99.90;;;;;;5005276;28;20213;-30
2023/12/28 08:54:00;;;;;;;85.40;35.73;;;5.80;99.90;;;;;;4993546;28;20197;-30
2023/12/28 08:56:26;;;;;;;49.40;28.97;;;5.80;99.90;;;;;;5002727;28;20210;-30
2023/12/28 08:58:54;;;;;;;15.00;10.47;;;5.90;99.90;;;;;;5029460;28;20309;-29
2023/12/28 09:01:22;;;;;;;16.83;9.90;;;6.00;99.90;;;;;;5028546;28;20197;-30
2023/12/28 09:03:57;;;;;;;16.43;9.10;;;6.00;99.90;;;;;;5029347;28;20197;-30
2023/12/28 09:06:23;;;;;;;11.13;5.83;;;6.00;99.90;;;;;;5005441;28;20217;-30
2023/12/28 09:08:51;;;;;;;7.37;3.67;;;6.10;99.90;;;;;;5026150;28;20190;-30
2023/12/28 09:11:18;;;;;;;5.17;3.60;;;6.20;99.90;;;;;;5006703;28;20227;-30
2023/12/28 09:13:45;;;;;;;7.13;4.13;;;6.40;99.90;;;;;;5000429;28;20186;-30
2023/12/28 09:16:13;;;;;;;9.30;5.30;;;6.50;99.90;;;;;;5019705;28;20206;-30
2023/12/28 09:18:41;;;;;;;6.80;3.90;;;6.60;99.90;;;;;;5042637;28;20178;-31
2023/12/28 09:21:10;;;;;;;4.97;3.10;;;6.70;99.90;;;;;;5028091;28;20190;-31
2023/12/28 09:23:37;;;;;;;3.87;2.63;;;6.80;99.90;;;;;;5006079;28;20213;-30
2023/12/28 09:26:04;;;;;;;5.13;3.40;;;6.80;99.90;;;;;;5010317;28;20202;-30
2023/12/28 09:28:34;;;;;;;5.47;3.10;;;6.90;99.90;;;;;;5011337;28;20186;-30
2023/12/28 09:31:01;;;;;;;4.67;3.10;;;6.90;99.90;;;;;;5014894;28;20275;-30
2023/12/28 09:33:27;;;;;;;5.17;3.13;;;7.00;99.90;;;;;;5029682;28;20170;-31
2023/12/28 09:35:53;;;;;;;6.50;3.10;;;7.00;99.90;;;;;;5043185;28;20248;-30
2023/12/28 09:38:20;;;;;;;18.03;6.53;;;7.10;99.90;;;;;;5006628;28;20182;-31
2023/12/28 09:40:46;;;;;;;150.37;46.70;;;7.10;99.90;;;;;;5020074;28;20190;-31
2023/12/28 09:43:25;;;;;;;54.10;21.67;;;7.10;99.90;;;;;;5022826;28;20221;-30
2023/12/28 09:45:54;;;;;;;30.93;16.07;;;7.20;99.90;;;;;;5023029;28;20201;-31
2023/12/28 09:48:22;;;;;;;30.10;15.77;;;7.30;99.90;;;;;;5024487;28;20190;-30
2023/12/28 09:50:54;;;;;;;27.50;14.63;;;7.30;99.90;;;;;;5021774;28;20208;-30
2023/12/28 09:53:24;;;;;;;17.73;10.27;;;7.30;99.90;;;;;;5024475;28;20206;-31
2023/12/28 09:55:53;;;;;;;12.47;6.43;;;7.40;99.90;;;;;;5011604;28;20216;-30
2023/12/28 09:58:22;;;;;;;10.83;6.30;;;7.40;99.90;;;;;;5007383;28;20194;-31
2023/12/28 10:00:52;;;;;;;8.17;4.67;;;7.50;99.90;;;;;;5005613;28;20181;-30
2023/12/28 10:03:19;;;;;;;8.57;5.63;;;7.60;99.90;;;;;;5028044;28;20191;-31
2023/12/28 10:05:45;;;;;;;11.83;9.37;;;7.60;99.90;;;;;;5011692;28;20221;-30
2023/12/28 10:08:13;;;;;;;14.37;10.53;;;7.60;99.90;;;;;;5010820;28;20187;-30
2023/12/28 10:10:42;;;;;;;18.47;11.77;;;7.70;99.90;;;;;;5007591;28;20216;-30
2023/12/28 10:16:57;;;;;;;10.03;8.10;;;7.70;99.90;;;;;;5030066;28;20305;-30
2023/12/28 10:19:23;;;;;;;12.17;8.73;;;7.80;99.90;;;;;;5027099;28;20212;-30
2023/12/28 10:21:49;;;;;;;11.33;9.17;;;7.80;99.90;;;;;;5027503;28;20222;-30
2023/12/28 10:24:15;;;;;;;14.60;10.77;;;7.80;99.90;;;;;;5010254;28;20214;-30
2023/12/28 10:26:42;;;;;;;17.10;12.43;;;7.90;99.90;;;;;;5027698;28;20300;-31
2023/12/28 10:29:08;;;;;;;12.77;10.50;;;7.90;99.90;;;;;;5023925;28;20185;-32
2023/12/28 10:31:35;;;;;;;14.10;9.33;;;7.90;99.90;;;;;;5046393;28;20438;-31
2023/12/28 10:34:02;;;;;;;10.50;6.97;;;7.90;99.90;;;;;;5028723;28;20186;-32
2023/12/28 10:36:28;;;;;;;8.00;6.67;;;8.00;99.90;;;;;;5028756;28;20213;-32
2023/12/28 10:38:57;;;;;;;10.03;7.30;;;8.00;99.90;;;;;;5030513;28;20248;-31
2023/12/28 10:41:24;;;;;;;14.03;8.20;;;8.00;99.90;;;;;;5012411;28;20211;-31
2023/12/28 10:44:04;;;;;;;11.27;7.20;;;8.10;99.90;;;;;;5029065;28;20185;-31
2023/12/28 10:46:32;;;;;;;11.03;7.60;;;8.10;99.90;;;;;;5029695;28;20189;-31
2023/12/28 10:49:12;;;;;;;10.07;6.83;;;8.10;99.90;;;;;;5017408;28;20209;-31
2023/12/28 10:51:43;;;;;;;11.07;6.10;;;8.10;99.90;;;;;;5022926;28;20202;-31
2023/12/28 10:54:39;;;;;;;8.03;6.20;;;8.20;99.90;;;;;;4994531;28;20197;-32
2023/12/28 10:57:11;;;;;;;7.67;5.73;;;8.20;99.90;;;;;;5027405;28;20292;-32
2023/12/28 10:59:59;;;;;;;8.13;6.10;;;8.30;99.90;;;;;;5004477;28;20307;-31
2023/12/28 11:02:33;;;;;;;9.07;5.50;;;8.40;99.90;;;;;;5008111;28;20197;-32
2023/12/28 11:05:02;;;;;;;7.80;5.50;;;8.40;99.90;;;;;;5009564;28;20709;-31
2023/12/28 11:07:32;;;;;;;6.57;4.90;;;8.60;99.90;;;;;;5009636;28;20192;-31
2023/12/28 11:10:04;;;;;;;6.43;5.00;;;8.60;99.90;;;;;;5009119;28;20264;-31
2023/12/28 11:12:32;;;;;;;8.07;4.13;;;8.80;99.90;;;;;;5043312;28;20207;-31
2023/12/28 11:14:59;;;;;;;6.00;4.00;;;8.90;99.90;;;;;;5012303;28;20241;-32
2023/12/28 11:17:27;;;;;;;5.03;3.90;;;9.10;99.90;;;;;;5025696;28;20183;-31
2023/12/28 11:19:56;;;;;;;7.23;4.33;;;9.10;99.90;;;;;;5019213;28;20208;-32
2023/12/28 11:22:23;;;;;;;7.00;3.47;;;9.20;99.90;;;;;;5026893;28;20239;-31
2023/12/28 11:24:53;;;;;;;2.97;2.40;;;9.40;99.90;;;;;;5007582;28;20217;-32
2023/12/28 11:27:20;;;;;;;3.50;1.73;;;9.50;99.90;;;;;;5008935;28;20186;-33
2023/12/28 11:29:48;;;;;;;3.33;2.13;;;9.70;99.90;;;;;;5011569;28;20188;-32
2023/12/28 11:32:14;;;;;;;3.63;2.30;;;9.90;99.90;;;;;;5017924;28;20210;-32
2023/12/28 11:34:40;;;;;;;2.97;2.00;;;10.00;99.90;;;;;;5002760;28;20292;-33
2023/12/28 11:37:21;;;;;;;3.73;2.40;;;10.10;99.90;;;;;;5006857;28;20192;-32
2023/12/28 11:39:49;;;;;;;5.27;3.33;;;10.20;99.90;;;;;;5025122;28;20178;-31
2023/12/28 11:42:23;;;;;;;3.37;2.17;;;10.30;99.90;;;;;;5010658;28;20187;-32
2023/12/28 11:44:56;;;;;;;4.07;2.90;;;10.40;99.90;;;;;;5026535;28;20209;-32
2023/12/28 11:47:23;;;;;;;4.93;2.10;;;10.40;99.90;;;;;;5033060;28;20185;-31
2023/12/28 11:49:51;;;;;;;3.57;1.70;;;10.50;99.90;;;;;;5031529;28;20177;-32
2023/12/28 11:52:31;;;;;;;1.67;1.57;;;10.50;99.90;;;;;;5034422;28;20193;-33
2023/12/28 11:54:59;;;;;;;2.67;1.83;;;10.60;99.90;;;;;;5033948;28;20207;-32
2023/12/28 11:57:25;;;;;;;2.47;2.27;;;10.60;99.90;;;;;;5030899;28;20297;-33
2023/12/28 11:59:58;;;;;;;4.70;2.70;;;10.70;99.90;;;;;;5017042;28;20177;-31
2023/12/28 12:02:26;;;;;;;2.57;1.90;;;10.70;99.90;;;;;;5023982;28;20176;-32
2023/12/28 12:05:01;;;;;;;2.77;1.83;;;10.70;99.90;;;;;;5028962;28;20337;-31
2023/12/28 12:07:27;;;;;;;2.50;2.00;;;10.80;99.90;;;;;;5032302;28;20193;-31
2023/12/28 12:09:57;;;;;;;6.00;3.60;;;10.70;99.90;;;;;;5044660;28;20177;-31
2023/12/28 12:12:23;;;;;;;3.57;2.43;;;10.70;99.90;;;;;;5017299;28;20681;-32
2023/12/28 12:14:52;;;;;;;5.57;4.00;;;10.70;99.90;;;;;;5043764;28;20204;-31
2023/12/28 12:17:19;;;;;;;3.27;2.70;;;10.70;99.90;;;;;;5021317;28;20201;-32
2023/12/28 12:19:48;;;;;;;4.27;3.87;;;10.70;99.90;;;;;;5030899;28;20182;-32
2023/12/28 12:22:16;;;;;;;3.50;3.20;;;10.70;99.90;;;;;;5033441;28;20193;-31
2023/12/28 12:24:45;;;;;;;2.23;1.87;;;10.70;99.90;;;;;;5030915;28;20193;-33
2023/12/28 12:27:10;;;;;;;2.57;1.90;;;10.70;99.90;;;;;;5009885;28;20206;-32
2023/12/28 12:29:36;;;;;;;3.13;2.30;;;10.60;99.90;;;;;;5032237;28;20195;-31
2023/12/28 12:32:03;;;;;;;3.07;1.93;;;10.60;99.90;;;;;;5052215;28;20209;-31
2023/12/28 12:34:29;;;;;;;2.63;1.80;;;10.60;99.90;;;;;;5015443;28;20208;-33
2023/12/28 12:36:55;;;;;;;2.60;1.90;;;10.50;99.90;;;;;;5048572;28;20186;-33
2023/12/28 12:39:24;;;;;;;2.83;1.60;;;10.50;99.90;;;;;;5017014;28;20189;-31
2023/12/28 12:41:50;;;;;;;3.27;1.37;;;10.60;99.90;;;;;;5012616;28;20278;-32
2023/12/28 12:44:18;;;;;;;2.80;1.30;;;10.60;99.90;;;;;;5033911;28;20283;-32
2023/12/28 12:46:44;;;;;;;4.27;1.20;;;10.60;99.90;;;;;;5029198;28;20221;-32
2023/12/28 12:49:10;;;;;;;1.70;1.27;;;10.60;99.90;;;;;;5026066;28;20186;-32
2023/12/28 12:51:38;;;;;;;2.20;1.27;;;10.60;99.90;;;;;;5051990;28;20251;-31
2023/12/28 12:54:04;;;;;;;2.70;1.50;;;10.50;99.90;;;;;;5014175;28;20187;-33
2023/12/28 12:56:30;;;;;;;2.20;1.30;;;10.50;99.90;;;;;;5028850;28;20204;-33
2023/12/28 12:58:57;;;;;;;2.17;1.30;;;10.40;99.90;;;;;;5026444;28;20182;-32
2023/12/28 13:01:26;;;;;;;2.03;1.20;;;10.40;99.90;;;;;;5015444;28;20188;-32
2023/12/28 13:03:52;;;;;;;1.57;1.40;;;10.40;99.90;;;;;;5033547;28;20181;-33
2023/12/28 13:06:22;;;;;;;1.83;1.30;;;10.40;99.90;;;;;;5029895;28;20241;-32
2023/12/28 13:08:48;;;;;;;2.37;1.37;;;10.30;99.90;;;;;;5032729;28;20197;-31
2023/12/28 13:11:13;;;;;;;2.60;1.27;;;10.30;99.90;;;;;;5030750;28;20201;-32
2023/12/28 13:13:40;;;;;;;1.00;1.00;;;10.30;99.90;;;;;;5030243;28;20219;-31
2023/12/28 13:16:06;;;;;;;1.63;1.33;;;10.30;99.90;;;;;;5003405;28;20216;-31
